Terminal Aerodrome Forecast
Issued by NWS

Home | Current Version | Previous Version | Text Only | Print | Product List | Glossary On
Versions: 1 2 3 4 5 6 7 8 9 10 11 12 13 14 15 16 17
000
FTUS42 KTBW 080527
TAFLAL
TAF
KLAL 080527Z 0806/0906 VRB03KT P6SM FEW250
     FM081400 15005KT P6SM SCT025 SCT250
     FM081800 18006KT P6SM VCTS BKN040CB
     FM090300 VRB03KT P6SM SCT250=

USA.gov is the U.S. government's official web portal to all federal, state and local government web resources and services.